createdAt,value
2022-09-01T00:00:01.408Z,14.42
2022-09-01T00:02:09.828Z,14.41
2022-09-01T00:04:16.355Z,14.40
2022-09-01T00:06:22.941Z,14.40
2022-09-01T00:08:27.211Z,14.39
2022-09-01T00:10:31.093Z,14.39
2022-09-01T00:12:35.101Z,14.38
2022-09-01T00:14:42.251Z,14.38
2022-09-01T00:16:45.889Z,14.38
2022-09-01T00:18:55.978Z,14.40
2022-09-01T00:21:00.602Z,14.41
2022-09-01T00:23:04.385Z,14.43
2022-09-01T00:25:09.387Z,14.46
2022-09-01T00:27:13.085Z,14.49
2022-09-01T00:29:17.639Z,14.53
2022-09-01T00:31:23.854Z,14.55
2022-09-01T00:33:27.446Z,14.55
2022-09-01T00:35:31.230Z,14.56
2022-09-01T00:37:40.900Z,14.56
2022-09-01T00:39:44.814Z,14.56
2022-09-01T00:41:50.568Z,14.56
2022-09-01T00:43:56.678Z,14.58
2022-09-01T00:46:00.368Z,14.61
2022-09-01T00:48:06.683Z,14.63
2022-09-01T00:50:12.917Z,14.66
2022-09-01T00:52:22.299Z,14.66
2022-09-01T00:54:29.533Z,14.68
2022-09-01T00:56:35.797Z,14.69
2022-09-01T00:58:40.152Z,14.70
2022-09-01T01:00:48.738Z,14.70
2022-09-01T01:02:56.053Z,14.71
2022-09-01T01:05:03.140Z,14.70
2022-09-01T01:07:09.249Z,14.71
2022-09-01T01:09:13.187Z,14.71
2022-09-01T01:11:18.896Z,14.73
2022-09-01T01:13:24.417Z,14.75
2022-09-01T01:15:28.163Z,14.77
2022-09-01T01:17:31.841Z,14.78
2022-09-01T01:19:59.532Z,14.79
2022-09-01T01:22:23.694Z,14.78
2022-09-01T01:24:30.659Z,14.75
2022-09-01T01:26:35.029Z,14.75
2022-09-01T01:28:41.527Z,14.75
2022-09-01T01:30:51.388Z,14.75
2022-09-01T01:32:55.612Z,14.77
2022-09-01T01:34:59.382Z,14.78
2022-09-01T01:37:03.286Z,14.78
2022-09-01T01:39:10.434Z,14.77
2022-09-01T01:41:18.277Z,14.77
2022-09-01T01:43:22.003Z,14.77
2022-09-01T01:45:26.622Z,14.77
2022-09-01T01:47:30.030Z,14.76
2022-09-01T01:49:33.792Z,14.77
2022-09-01T01:51:37.327Z,14.77
2022-09-01T01:53:41.308Z,14.75
2022-09-01T01:55:45.052Z,14.75
2022-09-01T01:57:53.884Z,14.73
2022-09-01T01:59:58.284Z,14.72
2022-09-01T02:02:09.861Z,14.70
2022-09-01T02:04:15.429Z,14.69
2022-09-01T02:06:24.736Z,14.67
2022-09-01T02:08:30.920Z,14.66
2022-09-01T02:10:37.948Z,14.66
2022-09-01T02:12:42.070Z,14.65
2022-09-01T02:14:48.490Z,14.66
2022-09-01T02:16:56.304Z,14.65
2022-09-01T02:19:00.784Z,14.65
2022-09-01T02:21:16.409Z,14.66
2022-09-01T02:23:24.808Z,14.66
2022-09-01T02:25:29.946Z,14.67
2022-09-01T02:27:36.976Z,14.67
2022-09-01T02:29:43.485Z,14.65
2022-09-01T02:31:52.195Z,14.66
2022-09-01T02:33:55.884Z,14.66
2022-09-01T02:36:02.486Z,14.67
2022-09-01T02:38:07.181Z,14.66
2022-09-01T02:40:11.749Z,14.68
2022-09-01T02:42:16.523Z,14.67
2022-09-01T02:44:22.251Z,14.66
2022-09-01T02:46:26.368Z,14.66
2022-09-01T02:48:36.124Z,14.66
2022-09-01T02:50:42.449Z,14.65
2022-09-01T02:52:48.846Z,14.67
2022-09-01T02:54:52.346Z,14.68
2022-09-01T02:56:56.008Z,14.68
2022-09-01T02:59:01.849Z,14.68
2022-09-01T03:01:06.594Z,14.69
2022-09-01T03:03:11.971Z,14.70
2022-09-01T03:05:19.578Z,14.70
2022-09-01T03:07:24.301Z,14.72
2022-09-01T03:09:29.155Z,14.74
2022-09-01T03:11:35.201Z,14.73
2022-09-01T03:13:40.739Z,14.74
2022-09-01T03:15:45.478Z,14.76
2022-09-01T03:17:49.902Z,14.76
2022-09-01T03:19:54.970Z,14.75
2022-09-01T03:22:00.415Z,14.75
2022-09-01T03:24:09.370Z,14.74
2022-09-01T03:26:13.107Z,14.75
2022-09-01T03:28:17.458Z,14.72
2022-09-01T03:30:21.960Z,14.74
2022-09-01T03:32:25.757Z,14.70
2022-09-01T03:34:29.459Z,14.69
2022-09-01T03:36:34.663Z,14.68
2022-09-01T03:38:39.768Z,14.68
2022-09-01T03:40:43.859Z,14.67
2022-09-01T03:42:47.797Z,14.66
2022-09-01T03:44:52.190Z,14.64
2022-09-01T03:46:58.572Z,14.59
2022-09-01T03:49:05.775Z,14.54
2022-09-01T03:51:09.923Z,14.51
2022-09-01T03:53:15.288Z,14.49
2022-09-01T03:55:24.931Z,14.50
2022-09-01T03:57:32.581Z,14.49
2022-09-01T03:59:36.676Z,14.48
2022-09-01T04:01:41.812Z,14.44
2022-09-01T04:03:49.324Z,14.42
2022-09-01T04:05:57.499Z,14.42
2022-09-01T04:08:04.105Z,14.41
2022-09-01T04:10:11.831Z,14.40
2022-09-01T04:12:17.385Z,14.39
2022-09-01T04:14:27.795Z,14.41
2022-09-01T04:16:53.335Z,14.39
2022-09-01T04:18:57.187Z,14.37
2022-09-01T04:21:01.438Z,14.35
2022-09-01T04:23:11.119Z,14.35
2022-09-01T04:25:16.235Z,14.35
2022-09-01T04:27:23.287Z,14.33
2022-09-01T04:29:28.584Z,14.34
2022-09-01T04:31:33.437Z,14.34
2022-09-01T04:33:39.107Z,14.33
2022-09-01T04:35:44.687Z,14.30
2022-09-01T04:37:48.957Z,14.30
2022-09-01T04:39:56.651Z,14.29
2022-09-01T04:42:05.003Z,14.28
2022-09-01T04:44:11.235Z,14.28
2022-09-01T04:46:17.480Z,14.26
2022-09-01T04:48:22.450Z,14.25
2022-09-01T04:50:27.696Z,14.24
2022-09-01T04:53:07.416Z,14.22
2022-09-01T04:55:25.005Z,14.20
2022-09-01T04:57:29.434Z,14.20
2022-09-01T04:59:36.060Z,14.20
2022-09-01T05:01:45.449Z,14.20
2022-09-01T05:03:57.605Z,14.18
2022-09-01T05:06:15.827Z,14.17
2022-09-01T05:08:25.046Z,14.18
2022-09-01T05:10:34.920Z,14.17
2022-09-01T05:12:52.594Z,14.16
2022-09-01T05:14:58.283Z,14.17
2022-09-01T05:17:04.138Z,14.16
2022-09-01T05:19:10.612Z,14.15
2022-09-01T05:21:16.990Z,14.15
2022-09-01T05:23:21.626Z,14.15
2022-09-01T05:25:26.366Z,14.14
2022-09-01T05:27:31.296Z,14.14
2022-09-01T05:29:38.531Z,14.16
2022-09-01T05:31:49.528Z,14.17
2022-09-01T05:33:54.485Z,14.18
2022-09-01T05:36:02.172Z,14.19
2022-09-01T05:38:09.190Z,14.20
2022-09-01T05:40:16.602Z,14.22
2022-09-01T05:42:22.233Z,14.26
2022-09-01T05:44:25.671Z,14.29
2022-09-01T05:46:31.804Z,14.30
2022-09-01T05:48:40.446Z,14.32
2022-09-01T05:50:45.644Z,14.35
2022-09-01T05:52:51.313Z,14.35
2022-09-01T05:54:56.859Z,14.35
2022-09-01T05:57:23.227Z,14.38
2022-09-01T05:59:27.991Z,14.41
2022-09-01T06:01:40.293Z,14.42
2022-09-01T06:03:46.141Z,14.46
2022-09-01T06:05:55.523Z,14.49
2022-09-01T06:08:01.018Z,14.50
2022-09-01T06:10:05.689Z,14.52
2022-09-01T06:12:18.486Z,14.54
2022-09-01T06:14:22.896Z,14.57
2022-09-01T06:16:28.926Z,14.62
2022-09-01T06:18:34.775Z,14.66
2022-09-01T06:20:43.203Z,14.71
2022-09-01T06:22:47.906Z,14.76
2022-09-01T06:24:58.219Z,14.82
2022-09-01T06:27:10.215Z,14.88
2022-09-01T06:29:15.655Z,14.95
2022-09-01T06:31:28.777Z,15.05
2022-09-01T06:33:32.734Z,15.16
2022-09-01T06:35:37.488Z,15.27
2022-09-01T06:37:44.190Z,15.35
2022-09-01T06:39:53.221Z,15.42
2022-09-01T06:41:58.462Z,15.45
2022-09-01T06:44:14.459Z,15.45
2022-09-01T06:46:28.106Z,15.46
2022-09-01T06:48:34.798Z,15.45
2022-09-01T06:55:38.031Z,15.20
2022-09-01T07:00:18.737Z,15.12
2022-09-01T07:02:26.858Z,15.11
2022-09-01T07:05:08.088Z,15.06
2022-09-01T07:10:23.376Z,15.00
2022-09-01T07:12:36.468Z,15.03
2022-09-01T07:19:48.364Z,15.45
2022-09-01T07:22:07.044Z,15.35
2022-09-01T07:24:13.703Z,15.26
2022-09-01T07:26:46.825Z,15.21
2022-09-01T07:33:54.162Z,15.48
2022-09-01T07:42:30.582Z,15.28
2022-09-01T07:43:52.648Z,15.18
2022-09-01T07:46:40.348Z,15.15
2022-09-01T07:49:29.645Z,15.17
2022-09-01T07:51:38.594Z,15.14
2022-09-01T07:53:44.997Z,15.15
2022-09-01T07:55:51.352Z,15.18
2022-09-01T07:57:55.189Z,15.15
2022-09-01T08:00:00.998Z,15.11
2022-09-01T08:02:18.836Z,15.10
2022-09-01T08:04:26.860Z,15.07
2022-09-01T08:06:41.000Z,15.07
2022-09-01T08:08:45.732Z,15.11
2022-09-01T08:10:49.772Z,15.12
2022-09-01T08:12:56.584Z,15.07
2022-09-01T08:17:51.183Z,15.09
2022-09-01T08:19:52.819Z,15.11
2022-09-01T08:22:28.825Z,15.13
2022-09-01T08:24:40.690Z,15.13
2022-09-01T08:26:44.748Z,15.11
2022-09-01T08:28:55.080Z,15.14
2022-09-01T08:31:12.018Z,15.22
2022-09-01T08:33:17.073Z,15.28
2022-09-01T08:35:22.955Z,15.35
2022-09-01T08:37:27.180Z,15.48
2022-09-01T08:39:31.036Z,15.53
2022-09-01T08:41:47.173Z,15.61
2022-09-01T08:44:04.511Z,15.78
2022-09-01T08:46:15.542Z,15.86
2022-09-01T08:49:09.727Z,15.90
2022-09-01T08:50:53.166Z,15.90
2022-09-01T08:53:20.587Z,15.83
2022-09-01T08:55:29.891Z,15.83
2022-09-01T08:57:35.762Z,15.83
2022-09-01T08:59:59.097Z,15.85
2022-09-01T09:02:28.116Z,15.93
2022-09-01T09:04:49.379Z,15.99
2022-09-01T09:07:00.774Z,16.09
2022-09-01T09:09:07.621Z,16.16
2022-09-01T09:11:24.231Z,16.24
2022-09-01T09:13:40.107Z,16.32
2022-09-01T09:15:48.306Z,16.40
2022-09-01T09:18:00.299Z,16.50
2022-09-01T09:20:06.306Z,16.48
2022-09-01T09:22:12.721Z,16.51
2022-09-01T09:24:25.871Z,16.58
2022-09-01T09:26:47.818Z,16.64
2022-09-01T09:28:51.823Z,16.61
2022-09-01T09:31:28.791Z,16.71
2022-09-01T09:33:52.093Z,16.69
2022-09-01T09:35:57.928Z,16.74
2022-09-01T09:38:24.179Z,16.80
2022-09-01T09:40:28.532Z,16.86
2022-09-01T09:42:36.444Z,16.91
2022-09-01T09:44:48.238Z,16.87
2022-09-01T09:46:52.709Z,16.86
2022-09-01T09:49:13.554Z,16.93
2022-09-01T09:51:21.170Z,16.95
2022-09-01T09:53:30.107Z,16.96
2022-09-01T09:55:33.798Z,17.02
2022-09-01T09:57:42.158Z,17.21
2022-09-01T10:00:04.324Z,17.42
2022-09-01T10:02:28.454Z,17.52
2022-09-01T10:04:40.091Z,17.39
2022-09-01T10:06:47.030Z,17.27
2022-09-01T10:08:50.789Z,17.16
2022-09-01T10:10:58.402Z,17.18
2022-09-01T10:13:03.536Z,17.25
2022-09-01T10:15:14.147Z,17.29
2022-09-01T10:17:20.935Z,17.24
2022-09-01T10:19:25.493Z,17.08
2022-09-01T10:21:35.015Z,17.09
2022-09-01T10:23:41.479Z,17.19
2022-09-01T10:25:47.801Z,17.21
2022-09-01T10:27:58.353Z,17.19
2022-09-01T10:30:12.687Z,17.03
2022-09-01T10:32:34.977Z,16.92
2022-09-01T10:34:42.368Z,16.94
2022-09-01T10:36:55.010Z,17.06
2022-09-01T10:39:05.358Z,17.06
2022-09-01T10:41:35.741Z,17.08
2022-09-01T10:43:42.856Z,17.09
2022-09-01T10:45:51.922Z,17.08
2022-09-01T10:48:32.061Z,17.35
2022-09-01T10:50:36.949Z,17.27
2022-09-01T10:53:16.977Z,17.33
2022-09-01T10:55:24.919Z,17.48
2022-09-01T10:57:52.466Z,17.45
2022-09-01T10:59:58.589Z,17.40
2022-09-01T11:02:28.387Z,17.40
2022-09-01T11:05:06.314Z,17.47
2022-09-01T11:07:50.472Z,17.46
2022-09-01T11:10:38.331Z,17.32
2022-09-01T11:12:59.249Z,17.33
2022-09-01T11:15:07.030Z,17.28
2022-09-01T11:17:19.125Z,17.21
2022-09-01T11:19:39.845Z,17.27
2022-09-01T11:21:44.435Z,17.27
2022-09-01T11:23:48.399Z,17.35
2022-09-01T11:28:43.028Z,17.58
2022-09-01T11:30:55.472Z,17.69
2022-09-01T11:33:09.459Z,17.79
2022-09-01T11:35:19.377Z,17.95
2022-09-01T11:37:27.537Z,17.83
2022-09-01T11:39:39.627Z,17.73
2022-09-01T11:41:57.559Z,17.75
2022-09-01T11:44:13.099Z,17.72
2022-09-01T11:46:20.573Z,17.61
2022-09-01T11:48:26.810Z,17.37
2022-09-01T11:50:33.110Z,17.28
2022-09-01T11:52:38.194Z,17.24
2022-09-01T11:54:44.124Z,17.23
2022-09-01T11:56:49.213Z,17.31
2022-09-01T11:58:53.545Z,17.32
2022-09-01T12:01:00.039Z,17.37
2022-09-01T12:03:03.935Z,17.46
2022-09-01T12:05:28.414Z,17.43
2022-09-01T12:07:40.356Z,17.50
2022-09-01T12:09:47.280Z,17.57
2022-09-01T12:11:53.144Z,17.49
2022-09-01T12:14:02.990Z,17.44
2022-09-01T12:16:19.141Z,17.40
2022-09-01T12:18:27.095Z,17.42
2022-09-01T12:20:33.404Z,17.53
2022-09-01T12:22:37.052Z,17.73
2022-09-01T12:24:40.657Z,17.87
2022-09-01T12:26:45.089Z,17.84
2022-09-01T12:28:50.485Z,17.68
2022-09-01T12:30:55.799Z,17.58
2022-09-01T12:35:27.303Z,17.53
2022-09-01T12:37:31.386Z,17.54
2022-09-01T12:39:36.826Z,17.50
2022-09-01T12:41:41.393Z,17.39
2022-09-01T12:43:45.580Z,17.33
2022-09-01T12:45:50.740Z,17.30
2022-09-01T12:47:54.385Z,17.33
2022-09-01T12:49:57.826Z,17.41
2022-09-01T12:52:12.086Z,17.45
2022-09-01T12:54:26.686Z,17.36
2022-09-01T12:56:33.053Z,17.38
2022-09-01T12:58:36.619Z,17.37
2022-09-01T13:00:59.110Z,17.36
2022-09-01T13:03:13.337Z,17.28
2022-09-01T13:05:41.678Z,17.27
2022-09-01T13:07:45.843Z,17.24
2022-09-01T13:09:49.348Z,17.16
2022-09-01T13:12:08.432Z,17.17
2022-09-01T13:14:11.989Z,17.33
2022-09-01T13:16:17.037Z,17.27
2022-09-01T13:18:22.118Z,17.27
2022-09-01T13:20:26.735Z,17.26
2022-09-01T13:22:30.292Z,17.22
2022-09-01T13:24:33.711Z,17.18
2022-09-01T13:26:38.704Z,17.19
2022-09-01T13:28:42.210Z,17.20
2022-09-01T13:30:50.345Z,17.13
2022-09-01T13:33:19.227Z,17.06
2022-09-01T13:35:24.779Z,17.01
2022-09-01T13:37:28.960Z,17.02
2022-09-01T13:39:32.726Z,17.04
2022-09-01T13:41:36.248Z,17.06
2022-09-01T13:43:39.837Z,17.05
2022-09-01T13:45:45.345Z,17.02
2022-09-01T13:50:23.267Z,16.99
2022-09-01T13:52:27.216Z,16.98
2022-09-01T13:54:30.830Z,16.97
2022-09-01T13:56:35.422Z,17.01
2022-09-01T13:58:39.122Z,17.08
2022-09-01T14:00:45.599Z,17.07
2022-09-01T14:02:52.135Z,16.99
2022-09-01T14:04:55.928Z,16.90
2022-09-01T14:07:00.950Z,16.85
2022-09-01T14:09:05.833Z,16.83
2022-09-01T14:11:09.740Z,16.85
2022-09-01T14:13:14.362Z,16.96
2022-09-01T14:15:23.728Z,17.05
2022-09-01T14:17:30.062Z,17.13
2022-09-01T14:19:34.231Z,17.22
2022-09-01T14:21:37.963Z,17.36
2022-09-01T14:23:43.322Z,17.31
2022-09-01T14:25:49.142Z,17.28
2022-09-01T14:27:53.688Z,17.25
2022-09-01T14:29:57.589Z,17.18
2022-09-01T14:32:01.237Z,17.20
2022-09-01T14:34:05.402Z,17.12
2022-09-01T14:36:14.899Z,17.06
2022-09-01T14:38:18.994Z,17.04
2022-09-01T14:40:26.123Z,17.13
2022-09-01T14:42:31.889Z,17.16
2022-09-01T14:44:38.003Z,17.24
2022-09-01T14:46:41.730Z,17.25
2022-09-01T14:48:47.126Z,17.30
2022-09-01T14:50:51.259Z,17.22
2022-09-01T14:52:57.303Z,17.17
2022-09-01T14:55:02.371Z,17.10
2022-09-01T14:59:31.854Z,17.30
2022-09-01T15:01:35.787Z,17.34
2022-09-01T15:03:39.729Z,17.37
2022-09-01T15:05:43.718Z,17.34
2022-09-01T15:07:47.804Z,17.46
2022-09-01T15:09:51.526Z,17.41
2022-09-01T15:11:55.150Z,17.31
2022-09-01T15:14:00.198Z,17.28
2022-09-01T15:16:05.218Z,17.28
2022-09-01T15:18:09.066Z,17.31
2022-09-01T15:20:30.274Z,17.30
2022-09-01T15:22:33.837Z,17.25
2022-09-01T15:24:38.124Z,17.24
2022-09-01T15:26:42.195Z,17.28
2022-09-01T15:28:45.884Z,17.30
2022-09-01T15:30:51.308Z,17.26
2022-09-01T15:32:57.991Z,17.23
2022-09-01T15:35:01.510Z,17.17
2022-09-01T15:37:05.782Z,17.01
2022-09-01T15:39:10.706Z,16.88
2022-09-01T15:41:17.739Z,16.84
2022-09-01T15:43:21.668Z,16.80
2022-09-01T15:45:26.372Z,16.72
2022-09-01T15:47:32.702Z,16.67
2022-09-01T15:49:37.446Z,16.66
2022-09-01T15:51:42.943Z,16.67
2022-09-01T15:53:46.615Z,16.65
2022-09-01T15:55:50.459Z,16.63
2022-09-01T15:57:55.582Z,16.62
2022-09-01T15:59:59.995Z,16.62
2022-09-01T16:02:06.518Z,16.60
2022-09-01T16:04:18.615Z,16.55
2022-09-01T16:06:25.045Z,16.60
2022-09-01T16:08:28.703Z,16.60
2022-09-01T16:10:35.090Z,16.59
2022-09-01T16:12:44.168Z,16.61
2022-09-01T16:14:48.288Z,16.62
2022-09-01T16:17:00.213Z,16.65
2022-09-01T16:19:09.660Z,16.65
2022-09-01T16:21:23.594Z,16.66
2022-09-01T16:23:35.744Z,16.64
2022-09-01T16:25:39.515Z,16.65
2022-09-01T16:27:46.045Z,16.65
2022-09-01T16:29:51.814Z,16.61
2022-09-01T16:31:57.175Z,16.60
2022-09-01T16:34:03.920Z,16.60
2022-09-01T16:36:24.989Z,16.55
2022-09-01T16:38:38.054Z,16.53
2022-09-01T16:40:48.517Z,16.53
2022-09-01T16:42:57.925Z,16.50
2022-09-01T16:45:12.251Z,16.51
2022-09-01T16:47:42.098Z,16.50
2022-09-01T16:49:54.635Z,16.48
2022-09-01T16:52:05.814Z,16.52
2022-09-01T16:54:21.042Z,16.53
2022-09-01T16:56:29.693Z,16.57
2022-09-01T16:58:46.080Z,16.63
2022-09-01T17:01:00.688Z,16.64
2022-09-01T17:03:09.404Z,16.58
2022-09-01T17:05:26.018Z,16.55
2022-09-01T17:07:39.686Z,16.53
2022-09-01T17:09:45.235Z,16.50
2022-09-01T17:11:54.210Z,16.49
2022-09-01T17:13:59.207Z,16.52
2022-09-01T17:16:08.221Z,16.56
2022-09-01T17:18:22.098Z,16.60
2022-09-01T17:20:31.283Z,16.61
2022-09-01T17:22:38.283Z,16.60
2022-09-01T17:24:44.847Z,16.57
2022-09-01T17:26:51.361Z,16.52
2022-09-01T17:28:57.649Z,16.46
2022-09-01T17:31:14.587Z,16.45
2022-09-01T17:33:26.029Z,16.45
2022-09-01T17:35:38.743Z,16.47
2022-09-01T17:37:56.563Z,16.49
2022-09-01T17:40:07.312Z,16.51
2022-09-01T17:42:21.793Z,16.49
2022-09-01T17:44:35.791Z,16.44
2022-09-01T17:46:45.918Z,16.38
2022-09-01T17:48:52.951Z,16.42
2022-09-01T17:51:05.993Z,16.39
2022-09-01T17:53:23.309Z,16.43
2022-09-01T17:55:46.431Z,16.49
2022-09-01T17:57:54.812Z,16.48
2022-09-01T18:00:07.888Z,16.45
2022-09-01T18:02:40.019Z,16.36
2022-09-01T18:04:59.561Z,16.33
2022-09-01T18:07:10.917Z,16.35
2022-09-01T18:09:18.487Z,16.37
2022-09-01T18:11:27.777Z,16.38
2022-09-01T18:13:52.434Z,16.31
2022-09-01T18:16:00.497Z,16.26
2022-09-01T18:18:11.805Z,16.22
2022-09-01T18:20:25.692Z,16.26
2022-09-01T18:22:37.438Z,16.27
2022-09-01T18:24:51.507Z,16.31
2022-09-01T18:26:55.099Z,16.35
2022-09-01T18:28:59.396Z,16.37
2022-09-01T18:31:12.271Z,16.38
2022-09-01T18:33:27.280Z,16.38
2022-09-01T18:35:40.336Z,16.37
2022-09-01T18:37:54.619Z,16.32
2022-09-01T18:40:12.330Z,16.33
2022-09-01T18:42:26.566Z,16.34
2022-09-01T18:44:43.067Z,16.31
2022-09-01T18:46:56.598Z,16.31
2022-09-01T18:49:10.906Z,16.32
2022-09-01T18:51:20.367Z,16.29
2022-09-01T18:53:33.252Z,16.28
2022-09-01T18:55:46.981Z,16.29
2022-09-01T18:57:56.223Z,16.28
2022-09-01T19:00:16.971Z,16.23
2022-09-01T19:02:40.219Z,16.19
2022-09-01T19:04:46.197Z,16.17
2022-09-01T19:07:00.076Z,16.16
2022-09-01T19:09:11.913Z,16.17
2022-09-01T19:11:26.366Z,16.17
2022-09-01T19:13:43.113Z,16.18
2022-09-01T19:15:57.469Z,16.18
2022-09-01T19:18:19.438Z,16.16
2022-09-01T19:20:29.160Z,16.16
2022-09-01T19:22:42.164Z,16.15
2022-09-01T19:24:50.534Z,16.11
2022-09-01T19:27:00.264Z,16.08
2022-09-01T19:29:09.500Z,16.10
2022-09-01T19:31:22.346Z,16.11
2022-09-01T19:33:33.587Z,16.12
2022-09-01T19:35:41.743Z,16.14
2022-09-01T19:37:50.906Z,16.12
2022-09-01T19:39:54.726Z,16.11
2022-09-01T19:42:05.093Z,16.08
2022-09-01T19:44:16.038Z,16.08
2022-09-01T19:46:26.524Z,16.06
2022-09-01T19:48:36.725Z,16.05
2022-09-01T19:50:47.586Z,16.06
2022-09-01T19:52:57.175Z,16.05
2022-09-01T19:55:06.375Z,16.03
2022-09-01T19:57:18.589Z,16.01
2022-09-01T19:59:29.062Z,16.02
2022-09-01T20:01:42.043Z,16.05
2022-09-01T20:03:50.342Z,16.05
2022-09-01T20:05:59.019Z,16.07
2022-09-01T20:08:06.984Z,16.07
2022-09-01T20:10:23.430Z,16.08
2022-09-01T20:12:38.025Z,16.12
2022-09-01T20:15:05.435Z,16.14
2022-09-01T20:17:17.497Z,16.19
2022-09-01T20:19:30.203Z,16.22
2022-09-01T20:21:40.280Z,16.25
2022-09-01T20:23:50.279Z,16.28
2022-09-01T20:26:01.159Z,16.31
2022-09-01T20:28:14.083Z,16.33
2022-09-01T20:30:20.569Z,16.36
2022-09-01T20:32:36.801Z,16.36
2022-09-01T20:34:47.702Z,16.38
2022-09-01T20:36:55.496Z,16.39
2022-09-01T20:39:22.824Z,16.40
2022-09-01T20:41:30.392Z,16.40
2022-09-01T20:43:39.119Z,16.39
2022-09-01T20:45:42.968Z,16.38
2022-09-01T20:47:50.735Z,16.39
2022-09-01T20:49:54.618Z,16.38
2022-09-01T20:52:04.905Z,16.37
2022-09-01T20:54:22.324Z,16.36
2022-09-01T20:56:33.240Z,16.37
2022-09-01T20:58:43.499Z,16.35
2022-09-01T21:00:52.262Z,16.35
2022-09-01T21:03:04.879Z,16.35
2022-09-01T21:05:25.827Z,16.35
2022-09-01T21:07:36.829Z,16.34
2022-09-01T21:09:52.472Z,16.33
2022-09-01T21:12:01.511Z,16.32
2022-09-01T21:14:17.684Z,16.30
2022-09-01T21:16:30.911Z,16.28
2022-09-01T21:18:43.921Z,16.24
2022-09-01T21:20:58.239Z,16.22
2022-09-01T21:23:03.785Z,16.21
2022-09-01T21:25:11.119Z,16.21
2022-09-01T21:27:18.992Z,16.20
2022-09-01T21:29:38.008Z,16.19
2022-09-01T21:31:41.521Z,16.18
2022-09-01T21:33:45.184Z,16.19
2022-09-01T21:35:49.159Z,16.17
2022-09-01T21:37:53.350Z,16.15
2022-09-01T21:39:58.626Z,16.14
2022-09-01T21:42:02.677Z,16.12
2022-09-01T21:44:06.338Z,16.11
2022-09-01T21:46:13.885Z,16.11
2022-09-01T21:48:17.984Z,16.11
2022-09-01T21:50:24.818Z,16.09
2022-09-01T21:52:28.609Z,16.07
2022-09-01T21:54:32.442Z,16.07
2022-09-01T21:56:36.470Z,16.06
2022-09-01T21:58:40.632Z,16.05
2022-09-01T22:00:44.723Z,16.04
2022-09-01T22:02:49.883Z,16.03
2022-09-01T22:04:53.599Z,16.02
2022-09-01T22:06:57.175Z,16.03
2022-09-01T22:09:02.324Z,16.02
2022-09-01T22:11:13.605Z,16.02
2022-09-01T22:13:17.647Z,16.03
2022-09-01T22:15:23.704Z,16.04
2022-09-01T22:17:27.460Z,16.04
2022-09-01T22:19:34.455Z,16.05
2022-09-01T22:21:38.393Z,16.06
2022-09-01T22:23:42.251Z,16.07
2022-09-01T22:25:48.096Z,16.06
2022-09-01T22:27:51.806Z,16.08
2022-09-01T22:29:55.346Z,16.06
2022-09-01T22:32:00.384Z,16.04
2022-09-01T22:34:04.322Z,16.03
2022-09-01T22:36:09.841Z,16.03
2022-09-01T22:38:13.492Z,16.05
2022-09-01T22:40:17.892Z,16.05
2022-09-01T22:42:21.809Z,16.04
2022-09-01T22:44:25.489Z,16.03
2022-09-01T22:46:30.997Z,16.01
2022-09-01T22:48:34.600Z,16.01
2022-09-01T22:50:40.095Z,16.00
2022-09-01T22:52:45.194Z,15.97
2022-09-01T22:54:48.964Z,15.95
2022-09-01T22:56:52.948Z,15.90
2022-09-01T22:59:02.823Z,15.85
2022-09-01T23:01:10.602Z,15.81
2022-09-01T23:03:15.077Z,15.76
2022-09-01T23:05:20.722Z,15.73
2022-09-01T23:07:24.253Z,15.69
2022-09-01T23:09:29.570Z,15.65
2022-09-01T23:11:33.450Z,15.62
2022-09-01T23:13:38.221Z,15.60
2022-09-01T23:15:42.838Z,15.56
2022-09-01T23:17:46.396Z,15.53
2022-09-01T23:19:49.973Z,15.52
2022-09-01T23:21:54.171Z,15.52
2022-09-01T23:23:59.057Z,15.50
2022-09-01T23:26:04.860Z,15.49
2022-09-01T23:28:10.279Z,15.50
2022-09-01T23:30:15.738Z,15.50
2022-09-01T23:32:19.379Z,15.50
2022-09-01T23:34:23.135Z,15.51
2022-09-01T23:36:28.758Z,15.50
2022-09-01T23:38:32.292Z,15.51
2022-09-01T23:40:36.102Z,15.51
2022-09-01T23:42:42.767Z,15.51
2022-09-01T23:44:46.443Z,15.48
2022-09-01T23:46:50.043Z,15.47
2022-09-01T23:48:54.732Z,15.45
2022-09-01T23:51:00.718Z,15.44
2022-09-01T23:53:04.664Z,15.45
2022-09-01T23:55:09.245Z,15.44
2022-09-01T23:57:13.037Z,15.43
2022-09-01T23:59:27.289Z,15.39
